Time;durP1;ratioP1;P1;durP2;ratioP2;P2;SDS_P1;SDS_P2;PMS_P1;PMS_P2;Temp;Humidity;BMP_temperature;BMP_pressure;BME280_temperature;BME280_humidity;BME280_pressure;Samples;Min_cycle;Max_cycle;Signal;HPM_P1;HPM_P2
2021/01/30 00:00:40;;;;;;;120.47;59.10;;;;;;;-5.31;89.66;97767.52;1711346;82;22206;-79
2021/01/30 00:03:09;;;;;;;120.77;61.48;;;;;;;-5.34;89.64;97757.39;1710294;83;21153;-80
2021/01/30 00:05:37;;;;;;;119.33;59.77;;;;;;;-5.37;89.60;97762.53;1729503;82;21190;-80
2021/01/30 00:08:07;;;;;;;136.62;63.28;;;;;;;-5.39;89.63;97759.16;1714222;82;21619;-82
2021/01/30 00:10:34;;;;;;;134.85;63.28;;;;;;;-5.43;89.60;97757.55;1709606;84;21151;-79
2021/01/30 00:13:03;;;;;;;139.68;67.03;;;;;;;-5.50;89.36;97754.23;1709756;84;22299;-80
2021/01/30 00:15:31;;;;;;;130.72;66.33;;;;;;;-5.58;89.26;97752.66;1709646;84;21166;-79
2021/01/30 00:17:59;;;;;;;147.30;69.80;;;;;;;-5.60;89.46;97746.75;1711147;82;21193;-80
2021/01/30 00:20:34;;;;;;;153.82;76.35;;;;;;;-5.60;89.76;97743.80;1711102;83;21247;-80
2021/01/30 00:23:03;;;;;;;166.53;79.70;;;;;;;-5.54;89.91;97746.69;1710080;82;21189;-81
2021/01/30 00:25:33;;;;;;;167.32;76.55;;;;;;;-5.56;89.79;97743.31;1713808;82;21225;-79
2021/01/30 00:28:00;;;;;;;165.52;78.83;;;;;;;-5.57;89.81;97750.52;1737424;82;21486;-80
2021/01/30 00:30:29;;;;;;;;;;;;;;;-5.57;89.91;97755.20;1740109;82;21151;-81
2021/01/30 00:32:57;;;;;;;152.82;70.80;;;;;;;-5.56;89.90;97753.48;1737358;82;20321;-79
2021/01/30 00:35:28;;;;;;;121.25;60.30;;;;;;;-5.58;89.93;97746.30;1737622;82;21619;-81
2021/01/30 00:37:55;;;;;;;127.02;60.95;;;;;;;-5.55;90.10;97744.98;1737090;82;21288;-79
2021/01/30 00:40:23;;;;;;;134.63;64.32;;;;;;;-5.49;90.26;97748.30;1737592;82;21191;-80
2021/01/30 00:42:50;;;;;;;;;;;;;;;-5.44;90.28;97748.21;1740145;82;21182;-79
2021/01/30 00:45:22;;;;;;;148.28;63.25;;;;;;;-5.40;90.23;97737.98;1737545;82;20629;-82
2021/01/30 00:47:49;;;;;;;117.33;57.80;;;;;;;-5.36;90.24;97736.22;1737614;82;21119;-80
2021/01/30 00:50:18;;;;;;;112.45;56.73;;;;;;;-5.34;90.16;97735.77;1737694;82;21215;-79
2021/01/30 00:52:46;;;;;;;125.15;59.10;;;;;;;-5.35;90.06;97731.53;1737526;82;21139;-82
2021/01/30 00:55:20;;;;;;;112.68;55.38;;;;;;;-5.39;89.87;97731.19;1719569;82;21652;-79
2021/01/30 00:57:47;;;;;;;106.75;52.95;;;;;;;-5.44;89.63;97731.69;1720111;83;21662;-80
2021/01/30 01:00:22;;;;;;;119.53;59.05;;;;;;;-5.50;89.66;97722.87;1720539;83;21205;-81
2021/01/30 01:02:50;;;;;;;122.02;59.83;;;;;;;-5.56;89.53;97740.78;1719731;83;21316;-83
2021/01/30 01:05:19;;;;;;;124.67;60.33;;;;;;;-5.54;89.80;97732.70;1720276;83;21647;-80
2021/01/30 01:07:46;;;;;;;128.68;60.88;;;;;;;-5.52;89.85;97736.04;1720496;82;21579;-79
2021/01/30 01:10:17;;;;;;;132.10;65.35;;;;;;;-5.49;89.91;97737.27;1720424;82;21191;-79
2021/01/30 01:12:43;;;;;;;112.83;59.42;;;;;;;-5.47;89.81;97740.63;1720570;83;21596;-78
2021/01/30 01:15:13;;;;;;;111.50;59.35;;;;;;;-5.49;89.69;97727.09;1713380;83;21258;-79
2021/01/30 01:17:40;;;;;;;117.60;58.95;;;;;;;-5.46;89.78;97730.45;1717781;82;21155;-78
2021/01/30 01:20:12;;;;;;;115.50;59.25;;;;;;;-5.40;89.83;97739.69;1720041;82;21604;-78
2021/01/30 01:22:39;;;;;;;112.20;56.05;;;;;;;-5.37;89.75;97750.25;1734863;82;21219;-79
2021/01/30 01:25:08;;;;;;;119.87;60.55;;;;;;;-5.40;89.63;97749.86;1705586;83;21140;-80
2021/01/30 01:27:35;;;;;;;120.47;59.50;;;;;;;-5.35;89.83;97748.06;1681739;85;21681;-79
2021/01/30 01:30:03;;;;;;;125.95;59.75;;;;;;;-5.29;89.79;97744.58;1681693;85;21158;-79
2021/01/30 01:32:30;;;;;;;106.45;58.92;;;;;;;-5.25;89.86;97740.70;1682234;83;21691;-78
2021/01/30 01:34:57;;;;;;;121.92;63.15;;;;;;;-5.22;89.93;97733.02;1692572;84;21164;-78
2021/01/30 01:37:24;;;;;;;143.25;72.58;;;;;;;-5.17;89.86;97740.16;1696895;84;21567;-77
2021/01/30 01:39:51;;;;;;;140.15;67.03;;;;;;;-5.10;89.78;97742.59;1705607;83;21213;-77
2021/01/30 01:42:24;;;;;;;119.93;59.80;;;;;;;-5.10;89.77;97733.69;1710818;83;21241;-78
2021/01/30 01:44:53;;;;;;;71.20;34.73;;;;;;;-5.04;89.96;97738.27;1708029;83;21608;-77
2021/01/30 01:47:31;;;;;;;91.02;44.77;;;;;;;-4.92;90.31;97732.13;1681964;84;21159;-80
2021/01/30 01:50:15;;;;;;;51.73;26.87;;;;;;;-4.84;90.31;97732.83;1682045;83;21160;-79
2021/01/30 01:52:43;;;;;;;48.83;24.47;;;;;;;-4.86;90.05;97728.19;1693643;83;21674;-78
2021/01/30 01:55:14;;;;;;;40.95;22.67;;;;;;;-4.75;90.56;97730.55;1709641;83;21183;-79
2021/01/30 01:57:51;;;;;;;34.03;18.77;;;;;;;-4.65;90.69;97724.84;1708864;83;21115;-78
2021/01/30 02:00:22;;;;;;;54.50;30.92;;;;;;;-4.58;90.70;97722.60;1698451;84;21136;-78
2021/01/30 02:02:53;;;;;;;38.80;22.27;;;;;;;-4.50;90.64;97724.13;1682002;84;21141;-78
2021/01/30 02:05:31;;;;;;;36.23;19.57;;;;;;;-4.41;90.65;97718.02;1682202;85;21213;-78
2021/01/30 02:08:06;;;;;;;38.02;19.82;;;;;;;-4.32;90.82;97720.38;1682216;85;21224;-78
2021/01/30 02:10:41;;;;;;;34.45;18.65;;;;;;;-4.22;90.92;97717.23;1684988;84;21217;-79
2021/01/30 02:13:32;;;;;;;32.83;17.42;;;;;;;-4.13;90.93;97711.93;1708657;84;22291;-78
2021/01/30 02:16:25;;;;;;;24.95;15.48;;;;;;;-4.06;90.84;97714.77;1709109;84;21194;-78
2021/01/30 02:19:21;;;;;;;24.95;15.85;;;;;;;-3.98;90.89;97710.77;1682151;84;21621;-80
2021/01/30 02:22:30;;;;;;;30.35;17.30;;;;;;;-3.91;90.92;97714.87;1682138;85;21181;-78
2021/01/30 02:25:48;;;;;;;33.80;18.45;;;;;;;-3.83;90.90;97718.09;1738946;81;21189;-77
2021/01/30 02:28:35;;;;;;;30.10;17.77;;;;;;;-3.74;90.93;97718.77;1730798;81;21187;-77
2021/01/30 02:31:18;;;;;;;;;;;;;;;-3.64;90.95;97713.85;1731679;81;21274;-77
2021/01/30 02:33:56;;;;;;;44.25;23.32;;;;;;;-3.57;90.94;97714.13;1728098;81;21207;-79
2021/01/30 02:37:08;;;;;;;44.67;27.50;;;;;;;-3.53;90.84;97719.55;1699715;84;21199;-78
2021/01/30 02:39:46;;;;;;;53.45;26.82;;;;;;;-3.50;90.77;97718.23;1710217;83;21586;-78
2021/01/30 02:42:21;;;;;;;39.98;24.12;;;;;;;-3.45;90.68;97718.94;1725821;83;21158;-78
2021/01/30 02:45:02;;;;;;;55.92;30.88;;;;;;;-3.42;90.65;97725.27;1728129;82;22105;-78
2021/01/30 02:47:33;;;;;;;59.58;30.97;;;;;;;-3.41;90.44;97718.01;1738564;81;21548;-81
2021/01/30 02:50:12;;;;;;;46.30;25.68;;;;;;;-3.44;90.34;97720.63;1757387;81;21568;-80
2021/01/30 02:52:41;;;;;;;43.00;26.97;;;;;;;-3.40;90.66;97717.13;1742409;81;21150;-77
2021/01/30 02:55:13;;;;;;;49.00;25.20;;;;;;;-3.35;90.68;97717.02;1735817;81;21172;-81
2021/01/30 02:57:42;;;;;;;54.45;29.85;;;;;;;-3.35;90.62;97716.19;1701182;83;21128;-77
2021/01/30 03:00:13;;;;;;;38.78;21.52;;;;;;;-3.30;90.72;97716.92;1717479;83;22124;-78
2021/01/30 03:02:41;;;;;;;44.85;26.12;;;;;;;-3.31;90.55;97718.62;1719126;83;21626;-78
2021/01/30 03:05:11;;;;;;;42.20;23.47;;;;;;;-3.29;90.48;97713.48;1699796;84;21089;-81
2021/01/30 03:08:04;;;;;;;35.08;20.70;;;;;;;-3.26;90.61;97718.52;1733031;81;21284;-78
2021/01/30 03:10:42;;;;;;;33.05;18.82;;;;;;;-3.20;90.80;97715.81;1670907;84;21157;-77
2021/01/30 03:13:29;;;;;;;33.30;20.52;;;;;;;-3.17;90.69;97724.67;1679204;84;21276;-78
2021/01/30 03:16:15;;;;;;;40.85;23.52;;;;;;;-3.15;90.70;97721.65;1708554;83;21180;-78
2021/01/30 03:18:55;;;;;;;;;;;;;;;-3.15;90.55;97715.27;1704628;83;21191;-78
2021/01/30 03:21:32;;;;;;;29.27;16.12;;;;;;;-3.11;90.65;97710.47;1863571;76;22986;-77
2021/01/30 03:24:02;;;;;;;32.40;19.12;;;;;;;-3.13;90.73;97717.35;1829836;77;21181;-78
2021/01/30 03:26:31;;;;;;;48.28;25.68;;;;;;;-3.12;90.79;97717.74;1814865;77;21610;-78
2021/01/30 03:28:58;;;;;;;46.35;25.82;;;;;;;-3.11;90.69;97720.69;1837321;77;21140;-78
2021/01/30 03:31:25;;;;;;;50.55;27.65;;;;;;;-3.10;90.70;97717.27;1836082;77;21131;-79
2021/01/30 03:33:52;;;;;;;50.23;25.90;;;;;;;-3.12;90.45;97711.80;1825768;77;21102;-80
2021/01/30 03:36:19;;;;;;;49.08;26.68;;;;;;;-3.19;90.19;97714.95;1838661;77;21555;-78
2021/01/30 03:38:46;;;;;;;43.25;24.45;;;;;;;-3.28;90.04;97712.60;1829125;77;21919;-78
2021/01/30 03:41:13;;;;;;;43.58;26.48;;;;;;;-3.33;90.07;97711.87;1835038;77;22314;-80
2021/01/30 03:43:40;;;;;;;48.13;26.05;;;;;;;-3.38;90.04;97707.73;1829855;77;21123;-80
2021/01/30 03:46:07;;;;;;;40.83;23.85;;;;;;;-3.44;89.92;97707.05;1775738;80;26138;-78
2021/01/30 03:48:34;;;;;;;39.92;21.65;;;;;;;-3.46;90.16;97705.79;1744024;80;21210;-78
2021/01/30 03:51:01;;;;;;;48.05;23.38;;;;;;;-3.44;90.20;97709.16;1766900;80;21133;-79
2021/01/30 03:53:28;;;;;;;54.95;30.32;;;;;;;-3.46;90.26;97710.89;1771628;80;21180;-78
2021/01/30 03:55:55;;;;;;;49.85;29.15;;;;;;;-3.41;90.35;97712.91;1765976;80;21184;-78
2021/01/30 03:58:22;;;;;;;46.77;24.87;;;;;;;-3.38;90.42;97712.83;1754479;81;21555;-78
2021/01/30 04:00:49;;;;;;;52.85;27.20;;;;;;;-3.33;90.42;97719.11;1746848;81;21213;-78
2021/01/30 04:03:16;;;;;;;58.75;30.72;;;;;;;-3.36;90.28;97712.80;1781134;79;22169;-78
2021/01/30 04:05:43;;;;;;;47.30;26.80;;;;;;;-3.34;90.39;97710.20;1783421;79;21181;-78
2021/01/30 04:08:10;;;;;;;48.15;29.10;;;;;;;-3.35;90.33;97711.92;1801608;79;21240;-78
2021/01/30 04:10:38;;;;;;;43.78;24.87;;;;;;;-3.39;90.26;97711.58;1754285;81;21694;-79
2021/01/30 04:13:07;;;;;;;;;;;;;;;-3.41;90.33;97715.45;1762649;80;21237;-78
2021/01/30 04:15:39;;;;;;;44.50;23.10;;;;;;;-3.43;90.18;97719.75;1773077;80;22221;-78
2021/01/30 04:18:08;;;;;;;42.73;23.52;;;;;;;-3.47;90.21;97707.12;1765779;80;21163;-78
2021/01/30 04:20:36;;;;;;;37.08;21.25;;;;;;;-3.49;90.24;97709.69;1786125;80;21187;-78
2021/01/30 04:23:05;;;;;;;32.85;20.55;;;;;;;-3.49;90.23;97705.86;1780769;80;21136;-79
2021/01/30 04:25:32;;;;;;;33.28;17.87;;;;;;;-3.50;90.22;97710.58;1756223;80;21202;-79
2021/01/30 04:28:00;;;;;;;32.30;19.40;;;;;;;-3.50;90.30;97705.47;1763877;81;22239;-79
2021/01/30 04:30:29;;;;;;;26.73;16.97;;;;;;;-3.47;90.44;97697.74;1771394;79;21183;-78
2021/01/30 04:32:57;;;;;;;25.40;15.93;;;;;;;-3.42;90.59;97698.48;1764097;79;21168;-79
2021/01/30 04:35:29;;;;;;;25.23;14.45;;;;;;;-3.33;90.71;97696.55;1775241;79;21134;-79
2021/01/30 04:37:58;;;;;;;21.62;13.53;;;;;;;-3.30;90.62;97691.41;1766013;80;21172;-78
2021/01/30 04:40:33;;;;;;;22.77;13.45;;;;;;;-3.29;90.65;97692.63;1812620;79;21182;-80
2021/01/30 04:43:14;;;;;;;23.18;12.93;;;;;;;-3.28;90.53;97690.91;1762009;80;21586;-79
2021/01/30 04:45:49;;;;;;;20.57;13.08;;;;;;;-3.27;90.57;97692.16;1768568;80;21165;-82
2021/01/30 04:48:51;;;;;;;18.82;12.07;;;;;;;-3.24;90.60;97684.87;1762652;80;21149;-79
2021/01/30 04:51:44;;;;;;;20.82;12.53;;;;;;;-3.23;90.67;97685.26;1731897;82;21162;-79
2021/01/30 04:54:46;;;;;;;24.70;13.60;;;;;;;-3.17;90.68;97692.77;1795337;79;21412;-80
2021/01/30 04:57:45;;;;;;;30.08;18.70;;;;;;;-3.17;90.43;97692.77;1762729;80;21173;-82
2021/01/30 05:00:32;;;;;;;34.08;18.70;;;;;;;-3.34;90.01;97697.44;1767765;79;21280;-79
2021/01/30 05:03:35;;;;;;;36.73;19.70;;;;;;;-3.47;90.11;97697.74;1706010;83;21609;-81
2021/01/30 05:06:18;;;;;;;32.20;19.23;;;;;;;-3.54;90.18;97705.13;1700796;83;21258;-80
2021/01/30 05:08:50;;;;;;;34.58;17.85;;;;;;;-3.54;90.41;97701.30;1692575;84;22201;-82
2021/01/30 05:11:21;;;;;;;29.80;17.35;;;;;;;-3.53;90.50;97697.86;1687465;83;21267;-80
2021/01/30 05:14:09;;;;;;;16.85;10.93;;;;;;;-3.48;90.57;97692.66;1831622;77;22165;-78
2021/01/30 05:16:41;;;;;;;16.70;10.95;;;;;;;-3.50;90.65;97697.82;1818555;77;21130;-78
2021/01/30 05:19:12;;;;;;;12.78;8.70;;;;;;;-3.45;90.79;97701.08;1821137;77;21195;-78
2021/01/30 05:21:56;;;;;;;14.93;9.30;;;;;;;-3.40;90.85;97703.53;1746291;80;21220;-78
2021/01/30 05:24:26;;;;;;;11.78;7.42;;;;;;;-3.38;90.85;97707.73;1754814;80;21190;-78
2021/01/30 05:27:18;;;;;;;10.65;6.55;;;;;;;-3.39;90.94;97706.06;1727507;81;21647;-78
2021/01/30 05:30:03;;;;;;;10.93;6.70;;;;;;;-3.39;91.01;97703.51;1721913;81;21173;-79
2021/01/30 05:32:49;;;;;;;8.85;6.33;;;;;;;-3.34;91.12;97698.72;1749920;81;22172;-81
2021/01/30 05:35:25;;;;;;;11.12;6.33;;;;;;;-3.30;91.11;97700.34;1764924;80;21099;-79
2021/01/30 05:38:08;;;;;;;9.53;6.17;;;;;;;-3.30;91.04;97695.23;1741261;81;21211;-78
2021/01/30 05:40:52;;;;;;;9.45;6.40;;;;;;;-3.29;91.05;97698.17;1733171;81;21138;-78
2021/01/30 05:43:31;;;;;;;11.73;5.75;;;;;;;-3.28;91.05;97703.67;1757887;80;21631;-78
2021/01/30 05:46:01;;;;;;;9.33;5.85;;;;;;;-3.26;91.16;97707.86;1761217;80;21227;-78
2021/01/30 05:48:34;;;;;;;8.83;5.72;;;;;;;-3.25;91.15;97702.31;1731528;80;21705;-78
2021/01/30 05:51:36;;;;;;;7.10;4.95;;;;;;;-3.22;91.19;97704.79;1780606;80;21183;-77
2021/01/30 05:54:05;;;;;;;7.95;4.92;;;;;;;-3.21;91.24;97706.48;1772802;80;21703;-79
2021/01/30 05:56:45;;;;;;;7.87;5.60;;;;;;;-3.20;91.37;97708.16;1764172;80;21617;-79
2021/01/30 05:59:17;;;;;;;7.17;4.80;;;;;;;-3.19;91.31;97707.30;1772881;80;21201;-80
2021/01/30 06:01:44;;;;;;;6.92;4.78;;;;;;;-3.18;91.32;97703.86;1785927;79;21242;-79
2021/01/30 06:04:12;;;;;;;7.35;5.37;;;;;;;-3.14;91.33;97702.89;1753737;80;21199;-80
2021/01/30 06:06:55;;;;;;;7.37;5.25;;;;;;;-3.11;91.33;97715.58;1755137;80;21570;-79
2021/01/30 06:09:42;;;;;;;6.40;4.45;;;;;;;-3.10;91.36;97714.72;1748795;80;21163;-80
2021/01/30 06:12:29;;;;;;;4.62;3.65;;;;;;;-3.08;91.47;97718.08;1769036;80;21159;-80
2021/01/30 06:15:10;;;;;;;7.72;5.33;;;;;;;-3.06;91.48;97718.86;1752197;80;21155;-80
2021/01/30 06:17:36;;;;;;;8.30;4.50;;;;;;;-3.05;91.49;97719.69;1741032;82;21136;-80
2021/01/30 06:20:24;;;;;;;3.67;3.27;;;;;;;-3.01;91.54;97720.87;1744868;81;21216;-81
2021/01/30 06:23:06;;;;;;;;;;;;;;;-2.97;91.66;97726.31;1760874;79;21497;-80
2021/01/30 06:25:40;;;;;;;4.60;3.42;;;;;;;-2.95;91.59;97719.43;1758457;79;22188;-79
2021/01/30 06:28:28;;;;;;;4.47;3.15;;;;;;;-2.95;91.62;97731.37;1759980;81;21649;-81
2021/01/30 06:31:09;;;;;;;2.95;2.10;;;;;;;-2.94;91.77;97733.03;1741122;81;21214;-79
2021/01/30 06:33:44;;;;;;;5.03;2.08;;;;;;;-2.95;91.81;97738.59;1745333;79;21130;-79
2021/01/30 06:36:21;;;;;;;3.98;2.40;;;;;;;-2.95;91.90;97732.20;1771927;79;21133;-79
2021/01/30 06:38:59;;;;;;;6.80;2.30;;;;;;;-2.93;91.78;97733.01;1780888;79;21315;-79
2021/01/30 06:41:31;;;;;;;3.98;2.77;;;;;;;-2.89;91.75;97729.09;1775180;79;21135;-79
2021/01/30 06:44:12;;;;;;;3.58;2.62;;;;;;;-2.86;91.73;97727.73;1769606;79;21187;-80
2021/01/30 06:47:21;;;;;;;4.80;2.47;;;;;;;-2.84;91.68;97736.21;1754788;79;21519;-79
2021/01/30 06:49:55;;;;;;;5.83;3.77;;;;;;;-2.83;91.66;97730.22;1777213;79;21264;-79
2021/01/30 06:52:30;;;;;;;4.65;3.92;;;;;;;-2.81;91.62;97733.58;1755248;81;21263;-80
2021/01/30 06:55:11;;;;;;;6.33;3.98;;;;;;;-2.83;91.54;97735.33;1748538;79;21194;-80
2021/01/30 06:57:52;;;;;;;6.42;4.15;;;;;;;-2.85;91.53;97739.66;1754821;79;21623;-80
2021/01/30 07:00:24;;;;;;;8.18;4.08;;;;;;;-2.87;91.50;97732.46;1772362;80;21611;-80
2021/01/30 07:03:26;;;;;;;6.62;3.80;;;;;;;-2.87;91.54;97735.02;1770878;80;21253;-80
2021/01/30 07:06:23;;;;;;;7.45;5.22;;;;;;;-2.85;91.56;97731.99;1733905;82;21210;-80
2021/01/30 07:09:03;;;;;;;7.70;4.70;;;;;;;-2.80;91.55;97737.80;1740357;82;21171;-79
2021/01/30 07:11:52;;;;;;;6.55;4.30;;;;;;;-2.79;91.43;97739.49;1740896;82;21591;-79
2021/01/30 07:14:25;;;;;;;7.60;4.70;;;;;;;-2.80;91.46;97738.66;1738050;82;21219;-79
2021/01/30 07:17:12;;;;;;;8.93;5.08;;;;;;;-2.78;91.38;97741.16;1738782;80;21615;-80
2021/01/30 07:19:57;;;;;;;9.00;4.80;;;;;;;-2.75;91.46;97748.73;1751796;80;21253;-78
2021/01/30 07:22:32;;;;;;;8.13;4.83;;;;;;;-2.71;91.41;97745.25;1736482;82;21234;-79
2021/01/30 07:25:17;;;;;;;6.15;5.08;;;;;;;-2.70;91.33;97754.58;1722537;82;21579;-79
2021/01/30 07:28:04;;;;;;;6.28;4.60;;;;;;;-2.64;91.48;97745.47;1722186;82;21135;-78
2021/01/30 07:31:10;;;;;;;7.95;4.22;;;;;;;-2.57;91.38;97747.00;1767192;80;21160;-79
2021/01/30 07:33:50;;;;;;;8.83;5.12;;;;;;;-2.50;91.19;97747.22;1730525;82;22219;-80
2021/01/30 07:36:41;;;;;;;11.50;4.65;;;;;;;-2.45;91.21;97751.39;1757451;80;21132;-79
2021/01/30 07:39:42;;;;;;;10.78;4.62;;;;;;;-2.37;91.24;97744.36;1757017;80;21122;-80
2021/01/30 07:42:15;;;;;;;11.70;5.67;;;;;;;-2.35;90.89;97746.41;1734514;82;21229;-79
2021/01/30 07:44:53;;;;;;;8.35;4.87;;;;;;;-2.33;90.77;97745.94;1767215;80;21191;-79
2021/01/30 07:47:38;;;;;;;5.62;4.53;;;;;;;-2.33;90.83;97745.94;1789487;79;21564;-83
2021/01/30 07:50:10;;;;;;;7.12;4.25;;;;;;;-2.29;90.90;97743.27;1735516;80;21191;-80
2021/01/30 07:52:43;;;;;;;4.92;3.67;;;;;;;-2.26;90.79;97749.57;1778556;79;21159;-77
2021/01/30 07:55:10;;;;;;;6.22;3.70;;;;;;;-2.24;90.69;97750.83;1756220;80;21201;-83
2021/01/30 07:58:10;;;;;;;5.40;3.40;;;;;;;-2.25;90.50;97751.69;1759728;80;21143;-83
2021/01/30 08:01:16;;;;;;;5.37;3.70;;;;;;;-2.23;90.63;97763.16;1738292;80;21254;-78
2021/01/30 08:03:57;;;;;;;5.90;3.60;;;;;;;-2.28;90.34;97758.16;1758103;80;21274;-79
2021/01/30 08:06:42;;;;;;;6.03;3.95;;;;;;;-2.28;90.26;97762.00;1743731;82;21195;-79
2021/01/30 08:09:35;;;;;;;4.20;2.85;;;;;;;-2.27;90.41;97771.33;1730492;82;21124;-81
2021/01/30 08:12:22;;;;;;;5.83;3.47;;;;;;;-2.27;90.46;97764.94;1640884;86;21187;-78
2021/01/30 08:15:04;;;;;;;5.62;3.45;;;;;;;-2.22;90.26;97769.49;1624720;86;21251;-79
2021/01/30 08:18:12;;;;;;;5.65;3.42;;;;;;;-2.17;90.66;97765.09;1647750;86;21240;-78
2021/01/30 08:20:56;;;;;;;5.55;3.37;;;;;;;-2.07;90.74;97756.30;1617254;86;21922;-76
2021/01/30 08:24:05;;;;;;;6.70;3.55;;;;;;;-1.95;90.49;97763.23;1649317;85;21214;-77
2021/01/30 08:26:39;;;;;;;6.83;3.37;;;;;;;-1.90;90.52;97762.66;1636786;85;21271;-76
2021/01/30 08:29:19;;;;;;;6.03;3.42;;;;;;;-1.84;90.22;97760.76;1839515;77;22759;-76
2021/01/30 08:31:54;;;;;;;7.22;3.30;;;;;;;-1.87;89.99;97775.36;1820863;78;21144;-82
2021/01/30 08:34:31;;;;;;;7.08;4.55;;;;;;;-1.86;90.10;97774.47;1813109;78;21234;-79
2021/01/30 08:37:15;;;;;;;5.53;3.05;;;;;;;-1.87;90.22;97768.97;1803128;78;21151;-83
2021/01/30 08:40:07;;;;;;;4.53;3.40;;;;;;;-1.81;90.26;97768.79;1813520;78;21174;-80
2021/01/30 08:42:58;;;;;;;4.95;3.40;;;;;;;-1.75;90.15;97775.45;1794573;78;21134;-86
2021/01/30 08:45:33;;;;;;;5.45;4.00;;;;;;;-1.72;90.22;97769.80;1827104;78;21206;-83
2021/01/30 08:48:25;;;;;;;5.35;3.60;;;;;;;-1.58;90.40;97767.66;1802805;78;21205;-86
2021/01/30 08:50:55;;;;;;;5.10;3.42;;;;;;;-1.37;90.50;97767.92;1806515;78;21135;-85
2021/01/30 08:53:28;;;;;;;5.95;3.60;;;;;;;-1.23;90.15;97769.61;1807575;78;21232;-88
2021/01/30 08:56:01;;;;;;;5.28;3.60;;;;;;;-1.13;90.32;97772.26;1780843;79;21179;-89
2021/01/30 08:58:40;;;;;;;6.50;2.92;;;;;;;-1.03;90.20;97769.43;1770798;80;21122;-88
2021/01/30 09:01:24;;;;;;;5.83;3.30;;;;;;;-0.94;90.00;97778.09;1758932;81;21427;-86
2021/01/30 09:03:55;;;;;;;4.87;2.80;;;;;;;-0.81;90.24;97778.09;1770244;80;21162;-86
2021/01/30 09:06:51;;;;;;;4.15;3.10;;;;;;;-0.66;89.45;97788.73;1723075;83;21140;-83
2021/01/30 09:09:22;;;;;;;6.45;3.02;;;;;;;-0.53;88.93;97790.01;1724331;83;21735;-79
2021/01/30 09:11:56;;;;;;;5.50;2.90;;;;;;;-0.65;88.00;97798.92;1777856;79;21115;-87
2021/01/30 09:14:31;;;;;;;5.30;3.25;;;;;;;-0.81;88.33;97788.34;1728404;81;22173;-86
2021/01/30 09:17:27;;;;;;;6.30;3.40;;;;;;;-0.92;86.88;97793.81;1783096;79;21608;-87
2021/01/30 09:20:19;;;;;;;4.43;3.40;;;;;;;-1.04;88.03;97788.23;1777422;79;21134;-86
2021/01/30 09:23:12;;;;;;;8.43;3.15;;;;;;;-0.97;88.41;97792.28;1746712;81;21127;-84
2021/01/30 09:25:53;;;;;;;3.20;2.70;;;;;;;-0.98;88.48;97785.47;1735252;81;21582;-82
2021/01/30 09:28:31;;;;;;;5.17;2.95;;;;;;;-0.80;88.37;97795.14;1747597;79;23827;-87
2021/01/30 09:31:09;;;;;;;5.35;3.25;;;;;;;-0.86;86.27;97797.91;1703242;83;21725;-82
2021/01/30 09:33:40;;;;;;;4.75;3.22;;;;;;;-0.78;87.41;97793.38;1726146;82;21145;-82
2021/01/30 09:36:17;;;;;;;5.78;3.67;;;;;;;-0.59;88.42;97795.31;1712874;83;21222;-81
2021/01/30 09:38:51;;;;;;;6.53;3.42;;;;;;;-0.50;88.52;97795.03;1756348;81;21140;-78
2021/01/30 09:41:30;;;;;;;6.20;4.08;;;;;;;-0.42;88.10;97793.05;1755349;81;21193;-76
2021/01/30 09:44:22;;;;;;;6.33;3.98;;;;;;;-0.40;88.15;97788.68;1699766;84;21191;-75
2021/01/30 09:46:55;;;;;;;9.68;4.80;;;;;;;-0.46;87.91;97788.89;1729043;83;21258;-82
2021/01/30 09:49:36;;;;;;;6.35;4.33;;;;;;;-0.46;87.72;97792.74;1755666;81;21168;-86
2021/01/30 09:52:06;;;;;;;5.37;3.75;;;;;;;-0.47;87.75;97792.36;1725434;83;21138;-86
2021/01/30 09:54:34;;;;;;;8.13;3.67;;;;;;;-0.46;87.41;97788.44;1755572;81;21215;-88
2021/01/30 09:57:09;;;;;;;7.55;4.10;;;;;;;-0.52;87.15;97793.78;1729788;81;21177;-81
2021/01/30 09:59:36;;;;;;;7.42;3.22;;;;;;;-0.35;88.07;97788.53;1764097;81;21627;-77
2021/01/30 10:02:14;;;;;;;7.92;3.30;;;;;;;-0.14;88.47;97781.81;1729324;82;21173;-78
2021/01/30 10:04:41;;;;;;;5.08;3.12;;;;;;;-0.02;87.77;97786.53;1725896;83;21222;-78
2021/01/30 10:07:16;;;;;;;5.05;3.25;;;;;;;-0.03;87.14;97782.27;1728951;83;21537;-81
2021/01/30 10:09:48;;;;;;;5.30;2.87;;;;;;;0.05;87.17;97788.42;1728723;83;21208;-80
2021/01/30 10:12:20;;;;;;;6.10;2.90;;;;;;;0.12;86.85;97792.00;1728806;83;21116;-88
2021/01/30 10:14:59;;;;;;;4.10;2.62;;;;;;;0.01;85.77;97791.55;1705615;83;21217;-82
2021/01/30 10:17:43;;;;;;;5.03;2.65;;;;;;;0.05;87.16;97793.09;1700041;83;21632;-79
2021/01/30 10:20:16;;;;;;;5.42;2.98;;;;;;;-0.13;85.89;97794.59;1699685;84;21225;-79
2021/01/30 10:22:47;;;;;;;4.45;2.58;;;;;;;-0.26;87.09;97800.58;1706864;83;21195;-78
2021/01/30 10:25:24;;;;;;;6.45;2.72;;;;;;;-0.35;86.35;97794.50;1713447;83;21727;-78
2021/01/30 10:28:11;;;;;;;4.08;2.22;;;;;;;-0.55;86.01;97795.63;1730481;81;21146;-78
2021/01/30 10:30:39;;;;;;;2.67;2.00;;;;;;;-0.77;85.14;97805.28;1737475;81;21198;-79
2021/01/30 10:33:11;;;;;;;4.95;2.25;;;;;;;-0.81;85.97;97811.41;1774008;80;22176;-79
2021/01/30 10:35:46;;;;;;;3.60;2.12;;;;;;;-0.78;86.29;97813.87;1756168;81;21171;-77
2021/01/30 10:38:20;;;;;;;3.60;2.40;;;;;;;-0.80;85.88;97807.95;1790372;80;21135;-77
2021/01/30 10:41:03;;;;;;;4.20;2.70;;;;;;;-0.69;87.02;97805.87;1790355;80;21920;-78
2021/01/30 10:43:40;;;;;;;5.58;2.70;;;;;;;-0.52;87.49;97801.92;1790364;80;21183;-77
2021/01/30 10:46:15;;;;;;;3.02;2.42;;;;;;;-0.39;87.00;97803.20;1756085;81;21304;-88
2021/01/30 10:48:43;;;;;;;4.55;2.92;;;;;;;-0.42;86.71;97803.72;1790421;80;21135;-89
2021/01/30 10:51:27;;;;;;;4.30;2.55;;;;;;;-0.41;86.74;97807.53;1749634;81;21185;-82
2021/01/30 10:54:24;;;;;;;3.92;2.58;;;;;;;-0.34;86.03;97800.45;1756113;81;21667;-79
2021/01/30 10:57:21;;;;;;;3.27;1.95;;;;;;;-0.45;86.39;97803.38;1767470;80;21484;-77
2021/01/30 11:00:02;;;;;;;5.62;2.37;;;;;;;-0.56;85.41;97810.59;1758296;80;21212;-76
2021/01/30 11:02:45;;;;;;;5.08;2.58;;;;;;;-0.71;86.77;97817.89;1762367;80;21199;-78
2021/01/30 11:05:20;;;;;;;3.70;2.35;;;;;;;-0.86;86.36;97813.28;1760560;80;21240;-78
2021/01/30 11:08:03;;;;;;;2.98;2.37;;;;;;;-0.98;85.61;97813.64;1788520;79;21162;-76
2021/01/30 11:10:47;;;;;;;2.75;1.98;;;;;;;-1.20;86.18;97814.33;1783419;79;21165;-86
2021/01/30 11:13:24;;;;;;;5.37;2.42;;;;;;;-1.07;86.72;97822.91;1788421;79;21272;-78
2021/01/30 11:16:17;;;;;;;4.83;2.72;;;;;;;-1.05;86.33;97822.42;1735518;81;21143;-77
2021/01/30 11:18:48;;;;;;;6.00;3.00;;;;;;;-1.02;86.24;97830.01;1778585;79;21176;-77
2021/01/30 11:21:36;;;;;;;5.45;3.67;;;;;;;-1.07;86.77;97822.45;1792525;79;21595;-77
2021/01/30 11:24:34;;;;;;;7.17;3.05;;;;;;;-0.99;87.14;97824.79;1742564;81;21139;-77
2021/01/30 11:29:44;;;;;;;7.12;3.90;;;;;;;-0.95;86.66;97835.35;1843920;77;22279;-77
2021/01/30 11:32:21;;;;;;;7.70;3.20;;;;;;;-1.14;86.11;97832.06;1799327;77;21147;-80
2021/01/30 11:34:52;;;;;;;12.85;3.45;;;;;;;-1.18;86.57;97838.14;1817850;77;21194;-78
2021/01/30 11:37:20;;;;;;;5.75;3.20;;;;;;;-1.17;87.21;97833.44;1816593;77;21145;-78
2021/01/30 11:39:47;;;;;;;4.90;3.12;;;;;;;-1.09;87.18;97841.31;1816454;77;21013;-78
2021/01/30 11:42:14;;;;;;;4.28;2.92;;;;;;;-1.04;87.35;97842.85;1751452;80;21142;-77
2021/01/30 11:44:41;;;;;;;4.70;2.90;;;;;;;-1.00;86.93;97838.49;1768467;80;21127;-78
2021/01/30 11:47:07;;;;;;;5.47;2.80;;;;;;;-0.88;87.20;97848.34;1786582;79;22175;-78
2021/01/30 11:49:34;;;;;;;6.40;3.60;;;;;;;-0.84;86.47;97842.27;1757756;80;20990;-78
2021/01/30 11:52:01;;;;;;;4.53;2.90;;;;;;;-0.70;87.49;97832.41;1759928;80;21201;-78
2021/01/30 11:54:29;;;;;;;4.05;2.27;;;;;;;-0.50;86.51;97836.05;1788995;79;21271;-78
2021/01/30 11:56:55;;;;;;;2.55;1.62;;;;;;;-0.43;85.79;97842.63;1750833;80;21178;-80
2021/01/30 11:59:22;;;;;;;3.92;2.60;;;;;;;-0.34;86.63;97832.06;1757962;80;21624;-82
2021/01/30 12:01:49;;;;;;;5.22;2.42;;;;;;;-0.27;85.53;97842.52;1771367;80;21153;-79
2021/01/30 12:04:16;;;;;;;3.92;2.00;;;;;;;-0.14;86.58;97839.11;1741625;82;21626;-79
2021/01/30 12:06:43;;;;;;;3.33;1.90;;;;;;;0.13;86.79;97838.58;1756415;80;21709;-81
2021/01/30 12:09:10;;;;;;;4.35;2.75;;;;;;;0.35;83.52;97839.93;1775864;80;21625;-79
2021/01/30 12:11:37;;;;;;;2.95;2.22;;;;;;;0.40;85.71;97842.34;1775648;79;21198;-80
2021/01/30 12:14:04;;;;;;;3.30;1.80;;;;;;;0.46;84.49;97851.55;1755846;81;21203;-78